Time;durP1;ratioP1;P1;durP2;ratioP2;P2;SDS_P1;SDS_P2;PMS_P1;PMS_P2;Temp;Humidity;BMP_temperature;BMP_pressure;BME280_temperature;BME280_humidity;BME280_pressure;Samples;Min_cycle;Max_cycle;Signal;HPM_P1;HPM_P2
2022/03/15 00:02:04;;;;;;;23.30;9.73;;;;;;;2.34;44.60;101561.28;4482137;32;34569;-76
2022/03/15 00:04:51;;;;;;;24.85;11.27;;;;;;;2.34;44.85;101558.59;4480010;32;34704;-76
2022/03/15 00:07:37;;;;;;;24.55;10.23;;;;;;;2.40;45.03;101549.63;4481951;32;34284;-76
2022/03/15 00:10:24;;;;;;;21.98;10.18;;;;;;;2.34;44.94;101548.59;4468753;32;34248;-76
2022/03/15 00:13:10;;;;;;;20.62;9.88;;;;;;;1.50;47.89;101551.84;4470419;32;34198;-76
2022/03/15 00:16:00;;;;;;;20.83;10.63;;;;;;;1.23;49.01;101551.78;4482043;32;34970;-76
2022/03/15 00:18:46;;;;;;;21.42;10.00;;;;;;;1.47;48.82;101558.50;4477068;32;34469;-76
2022/03/15 00:21:33;;;;;;;19.75;10.38;;;;;;;1.94;47.37;101542.37;4474099;32;34158;-76
2022/03/15 00:24:21;;;;;;;27.98;12.25;;;;;;;2.10;46.50;101541.94;4471148;32;36240;-75
2022/03/15 00:27:10;;;;;;;35.28;16.10;;;;;;;1.89;46.87;101540.28;4476685;32;34985;-75
2022/03/15 00:29:57;;;;;;;32.13;16.08;;;;;;;1.87;47.03;101528.00;4461401;32;35421;-75
2022/03/15 00:32:44;;;;;;;35.17;16.20;;;;;;;1.58;48.41;101524.66;4473434;32;34146;-75
2022/03/15 00:35:31;;;;;;;31.85;14.65;;;;;;;1.29;49.66;101533.94;4475718;32;34278;-76
2022/03/15 00:38:18;;;;;;;37.25;15.05;;;;;;;1.44;49.31;101536.47;4475797;32;34805;-75
2022/03/15 00:41:04;;;;;;;30.48;14.50;;;;;;;1.04;50.32;101541.72;4478260;32;34534;-75
2022/03/15 00:43:51;;;;;;;32.00;13.62;;;;;;;0.85;51.02;101543.28;4480051;32;34182;-75
2022/03/15 00:46:38;;;;;;;30.85;13.15;;;;;;;0.98;50.79;101537.16;4471983;32;33572;-75
2022/03/15 00:49:26;;;;;;;23.12;10.73;;;;;;;1.39;50.01;101533.53;4480507;32;35932;-76
2022/03/15 00:52:13;;;;;;;29.20;12.90;;;;;;;0.70;50.52;101535.34;4481157;32;34627;-76
2022/03/15 00:55:00;;;;;;;24.85;12.07;;;;;;;0.95;50.35;101545.66;4480233;32;33882;-76
2022/03/15 00:57:47;;;;;;;28.67;13.02;;;;;;;1.42;49.44;101543.94;4472387;32;34605;-75
2022/03/15 01:00:35;;;;;;;32.00;12.75;;;;;;;1.67;48.84;101539.63;4464454;32;34401;-74
2022/03/15 01:03:23;;;;;;;28.35;12.07;;;;;;;1.46;49.15;101529.81;4479753;32;35396;-75
2022/03/15 01:06:10;;;;;;;23.45;9.90;;;;;;;1.53;48.60;101513.62;4472215;32;34499;-75
2022/03/15 01:08:57;;;;;;;22.00;10.40;;;;;;;1.34;48.77;101510.69;4477066;32;35461;-75
2022/03/15 01:11:44;;;;;;;24.45;9.77;;;;;;;1.62;48.13;101501.56;4480176;32;35014;-75
2022/03/15 01:14:30;;;;;;;21.35;10.68;;;;;;;1.72;47.54;101499.31;4472226;32;34177;-75
2022/03/15 01:17:18;;;;;;;20.48;9.27;;;;;;;1.66;47.95;101497.44;4463389;32;34107;-75
2022/03/15 01:20:07;;;;;;;23.55;9.63;;;;;;;1.01;49.84;101498.94;4480108;32;34197;-76
2022/03/15 01:22:55;;;;;;;19.85;9.85;;;;;;;1.49;48.99;101501.56;4480144;32;35598;-76
2022/03/15 01:25:41;;;;;;;21.65;10.77;;;;;;;-0.21;53.17;101499.44;4471471;32;34492;-76
2022/03/15 01:28:28;;;;;;;22.35;9.85;;;;;;;1.03;50.88;101491.50;4478773;32;35129;-76
2022/03/15 01:31:15;;;;;;;25.77;10.43;;;;;;;1.43;49.16;101494.28;4480077;32;34637;-75
2022/03/15 01:34:01;;;;;;;23.83;10.20;;;;;;;1.51;48.83;101477.87;4479978;32;35009;-76
2022/03/15 01:36:50;;;;;;;26.27;10.00;;;;;;;1.56;48.34;101478.06;4470158;32;34630;-76
2022/03/15 01:39:38;;;;;;;22.10;10.85;;;;;;;1.72;47.92;101474.97;4479633;32;35056;-76
2022/03/15 01:42:24;;;;;;;25.15;11.73;;;;;;;1.85;47.57;101484.13;4470708;32;35484;-76
2022/03/15 01:45:13;;;;;;;20.62;10.48;;;;;;;1.26;49.43;101480.34;4465565;32;35928;-76
2022/03/15 01:48:00;;;;;;;23.38;10.43;;;;;;;1.48;49.34;101494.47;4479623;32;35042;-75
2022/03/15 01:50:47;;;;;;;23.23;10.55;;;;;;;1.33;49.77;101502.78;4479389;32;35216;-76
2022/03/15 01:53:33;;;;;;;22.55;10.57;;;;;;;1.65;49.06;101495.78;4472418;32;34612;-76
2022/03/15 01:56:19;;;;;;;20.70;9.95;;;;;;;1.77;49.13;101494.13;4474995;32;35504;-75
2022/03/15 01:59:08;;;;;;;17.02;8.70;;;;;;;1.88;48.52;101502.62;4479499;32;34707;-75
2022/03/15 02:01:55;;;;;;;20.10;9.00;;;;;;;1.91;47.54;101502.22;4467050;32;35004;-75
2022/03/15 02:04:41;;;;;;;25.88;10.85;;;;;;;1.98;47.31;101497.66;4471210;32;35540;-75
2022/03/15 02:07:28;;;;;;;30.83;12.48;;;;;;;1.62;48.11;101503.44;4471644;32;35120;-75
2022/03/15 02:10:14;;;;;;;35.70;15.13;;;;;;;1.51;48.80;101496.81;4474195;32;35049;-75
2022/03/15 02:13:01;;;;;;;30.20;13.07;;;;;;;1.51;49.02;101494.09;4479500;32;34856;-75
2022/03/15 02:15:47;;;;;;;30.58;12.40;;;;;;;1.00;50.74;101502.69;4478244;32;35396;-75
2022/03/15 02:18:33;;;;;;;25.73;10.18;;;;;;;1.43;50.00;101494.28;4465959;32;35019;-75
2022/03/15 02:21:20;;;;;;;25.95;11.27;;;;;;;1.65;48.38;101479.56;4479243;32;34279;-75
2022/03/15 02:24:07;;;;;;;25.88;10.65;;;;;;;1.36;49.30;101486.16;4478561;32;35199;-75
2022/03/15 02:26:53;;;;;;;23.23;10.77;;;;;;;1.35;49.68;101498.00;4470913;32;34563;-75
2022/03/15 02:29:39;;;;;;;24.37;10.30;;;;;;;1.73;48.57;101490.16;4482017;32;34555;-76
2022/03/15 02:32:26;;;;;;;23.55;11.30;;;;;;;1.89;47.75;101488.09;4474937;32;34152;-76
2022/03/15 02:35:12;;;;;;;27.20;12.57;;;;;;;1.88;47.73;101486.41;4479982;32;34139;-76
2022/03/15 02:37:59;;;;;;;32.08;12.50;;;;;;;0.77;50.03;101497.59;4481953;32;35578;-76
2022/03/15 02:40:45;;;;;;;32.72;13.20;;;;;;;0.83;50.76;101497.63;4481705;32;34543;-76
2022/03/15 02:43:32;;;;;;;30.58;12.88;;;;;;;1.52;48.97;101496.56;4481446;32;34662;-76
2022/03/15 02:46:18;;;;;;;31.58;13.68;;;;;;;1.60;48.73;101511.78;4475998;32;34204;-75
2022/03/15 02:49:05;;;;;;;27.95;12.65;;;;;;;1.56;48.95;101505.09;4481675;32;35559;-75
2022/03/15 02:51:52;;;;;;;34.38;15.02;;;;;;;1.45;49.66;101509.25;4474152;32;34930;-76
2022/03/15 02:54:40;;;;;;;34.85;15.43;;;;;;;1.52;49.54;101506.56;4481802;32;35067;-76
2022/03/15 02:57:28;;;;;;;30.65;13.85;;;;;;;0.79;51.52;101512.53;4476120;32;34165;-75
2022/03/15 03:00:17;;;;;;;35.10;15.27;;;;;;;0.71;52.05;101504.63;4480969;32;35218;-75
2022/03/15 03:03:04;;;;;;;31.52;14.18;;;;;;;1.40;50.34;101502.81;4475038;32;34951;-75
2022/03/15 03:05:51;;;;;;;40.35;15.75;;;;;;;1.49;49.81;101499.69;4475575;32;35115;-75
2022/03/15 03:08:38;;;;;;;34.30;16.17;;;;;;;1.49;49.45;101504.28;4482004;32;35181;-75
2022/03/15 03:11:24;;;;;;;34.42;15.70;;;;;;;1.43;49.67;101497.00;4482220;32;33482;-75
2022/03/15 03:14:13;;;;;;;34.45;13.55;;;;;;;1.41;49.73;101499.88;4463682;32;34588;-75
2022/03/15 03:16:59;;;;;;;34.70;13.75;;;;;;;1.40;49.61;101497.41;4482457;32;35088;-75
2022/03/15 03:19:46;;;;;;;31.40;13.45;;;;;;;1.32;49.89;101499.25;4474297;32;34214;-76
2022/03/15 03:22:32;;;;;;;27.87;12.50;;;;;;;1.44;49.62;101499.47;4474693;32;34649;-76
2022/03/15 03:25:19;;;;;;;34.63;12.88;;;;;;;1.39;49.80;101495.72;4476421;32;34749;-76
2022/03/15 03:28:06;;;;;;;31.00;12.68;;;;;;;1.12;50.39;101501.06;4477719;32;35342;-76
2022/03/15 03:30:52;;;;;;;28.92;11.93;;;;;;;1.28;50.78;101497.16;4475184;32;34955;-75
2022/03/15 03:33:39;;;;;;;25.65;12.07;;;;;;;0.90;51.29;101493.09;4473893;32;34185;-75
2022/03/15 03:36:25;;;;;;;28.62;13.05;;;;;;;0.84;51.98;101496.59;4475779;32;35905;-75
2022/03/15 03:39:32;;;;;;;34.42;13.77;;;;;;;1.17;51.31;101498.59;4481439;32;35150;-75
2022/03/15 03:42:18;;;;;;;23.55;11.75;;;;;;;0.49;52.95;101505.78;4444971;32;35132;-75
2022/03/15 03:45:05;;;;;;;25.20;10.73;;;;;;;1.29;50.89;101512.34;4481457;32;34636;-75
2022/03/15 03:47:52;;;;;;;24.10;11.95;;;;;;;1.29;50.25;101507.75;4475000;32;34970;-75
2022/03/15 03:50:40;;;;;;;25.83;11.90;;;;;;;1.27;50.21;101509.00;4481731;32;34525;-75
2022/03/15 03:53:27;;;;;;;26.48;12.82;;;;;;;0.86;51.26;101504.50;4481484;32;35089;-75
2022/03/15 03:56:13;;;;;;;25.55;11.70;;;;;;;0.51;52.63;101503.69;4481810;32;35614;-75
2022/03/15 03:59:00;;;;;;;26.80;11.60;;;;;;;-0.19;54.70;101505.47;4461739;32;34880;-75
2022/03/15 04:01:46;;;;;;;24.75;10.77;;;;;;;-0.48;56.51;101516.22;4481754;32;35339;-75
2022/03/15 04:04:32;;;;;;;21.27;10.82;;;;;;;0.30;53.71;101513.53;4481029;32;34285;-75
2022/03/15 04:07:19;;;;;;;27.55;11.18;;;;;;;0.53;52.63;101512.41;4470867;32;35247;-75
2022/03/15 04:10:06;;;;;;;25.23;12.02;;;;;;;0.56;52.50;101514.72;4478226;32;35931;-75
2022/03/15 04:12:54;;;;;;;24.00;10.75;;;;;;;0.60;52.47;101507.91;4481553;32;35481;-75
2022/03/15 04:15:40;;;;;;;23.62;11.65;;;;;;;0.62;52.47;101513.91;4462257;32;33571;-75
2022/03/15 04:18:26;;;;;;;25.92;11.35;;;;;;;0.41;52.93;101504.87;4480437;32;34707;-75
2022/03/15 04:21:13;;;;;;;25.23;11.07;;;;;;;0.49;52.67;101508.47;4481132;32;35172;-75
2022/03/15 04:23:59;;;;;;;26.33;11.75;;;;;;;0.47;52.91;101508.66;4476124;32;34552;-75
2022/03/15 04:26:47;;;;;;;22.83;10.43;;;;;;;0.45;53.00;101516.09;4475752;32;34236;-75
2022/03/15 04:29:33;;;;;;;22.60;11.18;;;;;;;0.85;52.17;101514.47;4468356;32;34590;-75
2022/03/15 04:32:20;;;;;;;27.13;11.25;;;;;;;0.88;51.82;101518.59;4480424;32;35674;-75
2022/03/15 04:35:06;;;;;;;22.55;10.73;;;;;;;1.02;51.08;101508.69;4481250;32;35433;-75
2022/03/15 04:37:54;;;;;;;24.30;10.85;;;;;;;0.40;52.70;101519.41;4480647;32;34265;-75
2022/03/15 04:40:41;;;;;;;23.02;10.73;;;;;;;0.22;53.32;101533.38;4480783;32;34285;-75
2022/03/15 04:43:28;;;;;;;19.58;9.73;;;;;;;0.76;51.96;101529.13;4470365;32;35011;-75
2022/03/15 04:46:14;;;;;;;22.30;10.27;;;;;;;0.92;50.92;101521.75;4474109;32;34274;-75
2022/03/15 04:49:01;;;;;;;21.50;10.73;;;;;;;0.87;50.95;101528.56;4480058;32;33882;-75
2022/03/15 04:51:46;;;;;;;22.15;10.00;;;;;;;1.01;50.51;101526.78;4474465;32;34342;-75
2022/03/15 04:54:34;;;;;;;22.85;10.40;;;;;;;0.93;50.79;101529.63;4474512;32;35928;-75
2022/03/15 04:57:20;;;;;;;21.42;9.77;;;;;;;0.99;50.66;101530.69;4472570;32;34195;-75
2022/03/15 05:00:09;;;;;;;19.77;8.23;;;;;;;0.99;50.83;101531.53;4478937;32;34237;-75
2022/03/15 05:02:56;;;;;;;23.95;9.60;;;;;;;0.98;50.83;101532.56;4476461;32;34184;-75
2022/03/15 05:05:44;;;;;;;18.42;9.13;;;;;;;0.70;51.54;101534.50;4480407;32;37392;-75
2022/03/15 05:08:30;;;;;;;21.60;9.68;;;;;;;0.95;50.93;101532.97;4480419;32;34282;-75
2022/03/15 05:11:18;;;;;;;19.73;9.98;;;;;;;1.14;50.48;101536.81;4480562;32;34205;-76
2022/03/15 05:14:05;;;;;;;20.27;10.20;;;;;;;0.88;50.79;101542.91;4479895;32;33632;-76
2022/03/15 05:16:51;;;;;;;22.00;9.70;;;;;;;0.63;51.75;101547.97;4479815;32;34933;-75
2022/03/15 05:19:37;;;;;;;19.85;9.40;;;;;;;0.76;51.78;101544.50;4479086;32;34586;-75
2022/03/15 05:22:24;;;;;;;21.00;10.00;;;;;;;1.03;51.07;101542.78;4479759;32;34143;-75
2022/03/15 05:25:13;;;;;;;20.67;9.90;;;;;;;1.13;50.93;101535.94;4472013;32;35157;-75
2022/03/15 05:28:00;;;;;;;22.75;10.50;;;;;;;1.26;50.23;101535.16;4469108;32;35856;-75
2022/03/15 05:30:46;;;;;;;22.25;9.82;;;;;;;0.88;51.17;101532.09;4479591;32;34579;-75
2022/03/15 05:33:32;;;;;;;21.67;10.23;;;;;;;0.99;51.13;101533.41;4480187;32;34770;-75
2022/03/15 05:36:19;;;;;;;21.52;10.43;;;;;;;0.59;51.94;101546.69;4471826;32;33706;-75
2022/03/15 05:39:05;;;;;;;24.35;10.25;;;;;;;0.74;51.76;101536.62;4471843;32;34913;-75
2022/03/15 05:41:51;;;;;;;22.00;9.30;;;;;;;0.50;52.78;101539.78;4472297;32;34564;-75
2022/03/15 05:44:39;;;;;;;20.80;9.95;;;;;;;0.59;52.80;101533.19;4473410;32;34136;-75
2022/03/15 05:47:25;;;;;;;21.55;10.00;;;;;;;1.02;51.96;101533.00;4462634;32;34436;-75
2022/03/15 05:50:11;;;;;;;25.40;11.48;;;;;;;1.00;51.79;101538.63;4471124;32;35919;-75
2022/03/15 05:52:58;;;;;;;24.67;10.65;;;;;;;1.23;50.82;101535.59;4479195;32;34623;-75
2022/03/15 05:55:44;;;;;;;21.58;9.50;;;;;;;1.23;50.64;101534.75;4468857;32;34152;-76
2022/03/15 05:58:32;;;;;;;19.48;9.43;;;;;;;1.34;50.59;101529.59;4472613;32;37040;-76
2022/03/15 06:01:18;;;;;;;17.92;9.32;;;;;;;1.38;50.55;101531.87;4476697;32;35983;-76
2022/03/15 06:04:07;;;;;;;21.17;9.00;;;;;;;1.35;50.77;101531.25;4481641;32;35420;-76
2022/03/15 06:06:57;;;;;;;17.25;8.88;;;;;;;1.53;50.33;101524.41;4480856;32;33885;-76
2022/03/15 06:09:43;;;;;;;18.02;9.30;;;;;;;1.72;49.74;101528.19;4481248;32;34667;-75
2022/03/15 06:12:30;;;;;;;20.08;8.15;;;;;;;1.84;48.96;101525.72;4467683;32;35623;-75
2022/03/15 06:15:17;;;;;;;20.40;8.77;;;;;;;2.01;48.04;101527.78;4475578;32;34524;-75
2022/03/15 06:18:05;;;;;;;19.20;9.93;;;;;;;2.05;47.89;101522.81;4480610;32;34838;-75
2022/03/15 06:20:52;;;;;;;27.45;12.70;;;;;;;1.92;48.51;101528.22;4459591;32;34535;-75
2022/03/15 06:23:38;;;;;;;26.02;11.38;;;;;;;1.84;48.66;101531.13;4480994;32;34966;-75
2022/03/15 06:26:46;;;;;;;27.85;12.90;;;;;;;1.88;48.90;101529.66;4474494;32;34373;-76
2022/03/15 06:29:32;;;;;;;26.83;12.23;;;;;;;2.12;48.20;101534.44;4475962;32;34153;-76
2022/03/15 06:32:19;;;;;;;24.63;12.10;;;;;;;1.98;48.80;101543.59;4480750;32;34612;-75
2022/03/15 06:35:10;;;;;;;23.95;12.65;;;;;;;2.15;49.11;101538.63;4469444;32;34864;-75
2022/03/15 06:37:56;;;;;;;30.33;13.45;;;;;;;2.09;49.41;101537.56;4464770;32;34563;-76
2022/03/15 06:40:43;;;;;;;26.30;13.23;;;;;;;1.73;49.97;101538.78;4475290;32;34167;-76
2022/03/15 06:43:29;;;;;;;23.48;12.65;;;;;;;1.19;51.60;101541.56;4482560;32;35671;-75
2022/03/15 06:46:15;;;;;;;27.37;12.90;;;;;;;1.07;51.84;101544.03;4473574;32;34578;-75
2022/03/15 06:49:02;;;;;;;24.83;11.98;;;;;;;1.17;51.74;101546.34;4481585;32;35527;-75
2022/03/15 06:51:48;;;;;;;33.28;15.75;;;;;;;1.28;51.75;101538.50;4467581;32;34986;-75
2022/03/15 06:54:35;;;;;;;26.50;13.40;;;;;;;1.26;52.54;101537.03;4476642;32;34116;-76
2022/03/15 06:57:22;;;;;;;29.15;13.55;;;;;;;1.92;50.59;101522.81;4479937;32;36032;-76
2022/03/15 07:00:11;;;;;;;26.23;12.45;;;;;;;2.51;48.79;101516.53;4473878;32;34627;-75
2022/03/15 07:02:57;;;;;;;25.05;13.23;;;;;;;2.99;46.90;101508.03;4464065;32;34115;-75
2022/03/15 07:05:44;;;;;;;31.73;13.68;;;;;;;3.14;46.66;101503.16;4480547;32;34660;-75
2022/03/15 07:08:30;;;;;;;27.33;12.95;;;;;;;3.32;46.34;101507.84;4481204;32;34632;-76
2022/03/15 07:11:17;;;;;;;24.95;12.37;;;;;;;3.78;45.42;101506.72;4481402;32;34513;-75
2022/03/15 07:14:04;;;;;;;24.90;11.57;;;;;;;3.92;45.37;101496.59;4475618;32;34138;-76
2022/03/15 07:16:50;;;;;;;21.35;12.30;;;;;;;3.94;44.25;101504.53;4462243;32;34182;-75
2022/03/15 07:19:37;;;;;;;23.30;12.65;;;;;;;4.20;43.71;101501.56;4482313;32;35055;-75
2022/03/15 07:22:24;;;;;;;23.52;12.95;;;;;;;4.23;44.14;101505.72;4482654;32;35491;-76
2022/03/15 07:25:10;;;;;;;23.75;13.07;;;;;;;4.56;43.88;101512.72;4482376;32;34818;-75
2022/03/15 07:27:57;;;;;;;30.33;13.30;;;;;;;4.89;42.57;101506.88;4472751;32;34595;-75
2022/03/15 07:30:43;;;;;;;23.80;14.23;;;;;;;5.31;41.98;101505.09;4482830;31;35029;-75
2022/03/15 07:33:29;;;;;;;26.35;12.80;;;;;;;4.99;41.81;101506.38;4477978;32;34149;-75
2022/03/15 07:36:17;;;;;;;27.23;13.05;;;;;;;5.64;40.76;101509.22;4478330;32;34227;-75
2022/03/15 07:39:04;;;;;;;26.83;14.07;;;;;;;5.80;40.01;101500.38;4478460;32;35546;-76
2022/03/15 07:41:50;;;;;;;23.87;11.75;;;;;;;5.92;39.70;101502.28;4470830;32;34531;-75
2022/03/15 07:44:37;;;;;;;22.10;12.60;;;;;;;6.35;38.19;101504.72;4475824;32;35462;-75
2022/03/15 07:47:23;;;;;;;22.45;12.05;;;;;;;6.45;38.25;101506.84;4482744;32;34230;-75
2022/03/15 07:50:10;;;;;;;24.30;12.27;;;;;;;6.26;36.99;101506.97;4476449;32;34375;-75
2022/03/15 07:52:56;;;;;;;21.30;11.90;;;;;;;6.73;38.08;101506.94;4482634;32;35015;-75
2022/03/15 07:55:42;;;;;;;22.17;12.40;;;;;;;6.89;37.43;101505.38;4476203;32;35316;-74
2022/03/15 07:58:29;;;;;;;23.25;12.48;;;;;;;7.18;36.12;101508.13;4475026;32;34192;-75
2022/03/15 08:01:16;;;;;;;22.75;12.37;;;;;;;7.40;36.07;101503.66;4474254;32;34662;-74
2022/03/15 08:04:04;;;;;;;23.75;12.45;;;;;;;7.86;35.53;101504.47;4482105;32;36007;-74
2022/03/15 08:06:50;;;;;;;24.60;13.13;;;;;;;7.57;35.31;101505.56;4481975;32;35600;-74
2022/03/15 08:09:37;;;;;;;23.30;13.13;;;;;;;7.97;35.78;101505.47;4481604;32;34136;-75
2022/03/15 08:12:25;;;;;;;23.87;13.43;;;;;;;7.97;35.17;101501.87;4481711;32;35527;-75
2022/03/15 08:15:12;;;;;;;27.17;14.52;;;;;;;8.34;35.77;101507.69;4481755;32;34680;-75
2022/03/15 08:17:57;;;;;;;27.92;14.77;;;;;;;8.42;35.45;101500.97;4473941;32;34291;-75
2022/03/15 08:20:45;;;;;;;27.42;15.48;;;;;;;8.50;37.04;101501.37;4465935;32;35671;-75
2022/03/15 08:23:32;;;;;;;23.73;14.57;;;;;;;8.17;34.74;101493.19;4482119;32;34696;-75
2022/03/15 08:26:18;;;;;;;27.98;15.35;;;;;;;8.63;34.51;101491.16;4477442;32;35979;-75
2022/03/15 08:29:07;;;;;;;23.00;14.23;;;;;;;9.28;33.72;101498.53;4474252;32;34597;-75
2022/03/15 08:31:54;;;;;;;27.55;15.30;;;;;;;9.34;34.71;101494.75;4482580;32;34277;-75
2022/03/15 08:34:42;;;;;;;26.83;14.63;;;;;;;9.54;33.16;101487.84;4482887;32;34263;-75
2022/03/15 08:37:28;;;;;;;23.70;13.60;;;;;;;9.83;32.31;101489.19;4476672;32;35031;-75
2022/03/15 08:40:14;;;;;;;22.42;14.35;;;;;;;9.95;32.34;101494.50;4474883;32;34517;-75
2022/03/15 08:43:01;;;;;;;26.05;13.80;;;;;;;10.39;32.16;101479.75;4465159;32;34942;-75
2022/03/15 08:45:48;;;;;;;28.50;13.25;;;;;;;10.37;31.83;101477.31;4479701;32;34637;-75
2022/03/15 08:48:35;;;;;;;24.83;13.40;;;;;;;10.62;30.00;101473.87;4481443;32;35618;-75
2022/03/15 08:51:21;;;;;;;23.23;13.50;;;;;;;10.92;30.44;101469.62;4478640;32;34622;-76
2022/03/15 08:54:08;;;;;;;28.55;13.60;;;;;;;11.06;29.82;101457.06;4451015;32;33186;-76
2022/03/15 08:56:54;;;;;;;24.23;13.88;;;;;;;11.07;29.64;101447.75;4460311;32;34539;-76
2022/03/15 08:59:40;;;;;;;22.20;12.82;;;;;;;11.42;29.87;101448.91;4481596;32;34852;-76
2022/03/15 09:02:27;;;;;;;25.05;14.02;;;;;;;11.80;29.57;101444.81;4473270;32;34180;-76
2022/03/15 09:05:18;;;;;;;21.70;13.75;;;;;;;12.07;27.68;101450.03;4481719;32;34258;-76
2022/03/15 09:08:05;;;;;;;32.08;14.63;;;;;;;12.14;28.37;101445.06;4471075;32;35620;-77
2022/03/15 09:10:52;;;;;;;27.15;14.27;;;;;;;11.44;27.47;101430.22;4472064;32;35152;-76
2022/03/15 09:13:38;;;;;;;22.50;13.45;;;;;;;11.97;27.88;101433.56;4480880;32;35312;-76
2022/03/15 09:16:30;;;;;;;27.35;13.27;;;;;;;12.44;27.27;101426.87;4474702;32;34555;-76
2022/03/15 09:19:16;;;;;;;22.13;12.70;;;;;;;12.25;27.24;101425.81;4481574;32;34698;-76
2022/03/15 09:22:04;;;;;;;23.27;13.05;;;;;;;12.74;26.09;101425.09;4471893;32;34627;-76
2022/03/15 09:24:50;;;;;;;23.25;13.55;;;;;;;12.95;25.80;101415.66;4471034;32;35130;-76
2022/03/15 09:27:36;;;;;;;19.87;11.98;;;;;;;13.12;26.41;101412.53;4473474;32;34073;-76
2022/03/15 09:30:23;;;;;;;23.55;12.63;;;;;;;13.34;25.25;101403.84;4480968;32;35639;-76
2022/03/15 09:33:09;;;;;;;19.20;11.48;;;;;;;13.54;25.19;101402.87;4481803;32;34915;-76
2022/03/15 09:35:55;;;;;;;22.77;12.93;;;;;;;13.67;25.22;101406.91;4482092;32;34567;-76
2022/03/15 09:38:43;;;;;;;21.50;11.82;;;;;;;13.99;24.94;101403.59;4474407;32;34180;-76
2022/03/15 09:41:29;;;;;;;19.42;11.30;;;;;;;13.79;24.94;101401.84;4472750;32;34626;-76
2022/03/15 09:44:18;;;;;;;17.20;9.10;;;;;;;14.34;23.77;101388.63;4462022;32;34592;-76
2022/03/15 09:47:07;;;;;;;14.90;9.13;;;;;;;14.67;23.15;101396.22;4461570;32;34616;-76
2022/03/15 09:49:54;;;;;;;18.58;10.50;;;;;;;14.80;23.45;101399.09;4476887;32;34130;-76
2022/03/15 09:52:40;;;;;;;21.10;11.07;;;;;;;14.89;23.31;101393.72;4473782;32;34345;-75
2022/03/15 09:55:27;;;;;;;18.12;10.25;;;;;;;15.33;22.94;101395.28;4461634;32;35917;-75
2022/03/15 09:58:18;;;;;;;23.20;11.73;;;;;;;15.61;22.72;101376.06;4472448;32;35356;-75
2022/03/15 10:01:04;;;;;;;20.83;11.57;;;;;;;15.72;23.23;101381.12;4472940;32;33755;-75
2022/03/15 10:03:51;;;;;;;19.92;11.77;;;;;;;15.71;22.44;101385.03;4463354;32;34568;-75
2022/03/15 10:06:38;;;;;;;19.35;11.57;;;;;;;15.93;22.31;101373.28;4480628;32;35161;-77
2022/03/15 10:09:26;;;;;;;22.85;11.52;;;;;;;16.47;21.79;101372.78;4471936;32;33266;-76
2022/03/15 10:12:14;;;;;;;19.48;11.00;;;;;;;16.44;22.07;101371.47;4477921;32;34138;-78
2022/03/15 10:15:16;;;;;;;20.12;10.57;;;;;;;16.11;21.94;101373.53;4461635;32;34247;-77
2022/03/15 10:18:06;;;;;;;18.90;10.20;;;;;;;15.68;22.82;101371.81;4475491;32;35074;-76
2022/03/15 10:20:53;;;;;;;17.00;10.00;;;;;;;16.03;22.21;101369.53;4481465;32;35418;-78
2022/03/15 10:23:40;;;;;;;17.62;10.23;;;;;;;16.37;21.75;101362.78;4474279;32;36468;-78
2022/03/15 10:26:27;;;;;;;17.77;9.40;;;;;;;15.89;23.10;101365.91;4473904;32;35998;-77
2022/03/15 10:29:15;;;;;;;15.75;10.00;;;;;;;16.68;22.51;101362.09;4458583;32;34981;-77
2022/03/15 10:32:04;;;;;;;16.92;9.88;;;;;;;16.31;23.07;101364.00;4481138;32;34575;-77
2022/03/15 10:34:51;;;;;;;13.18;8.82;;;;;;;16.44;22.29;101362.34;4481450;32;33904;-76
2022/03/15 10:37:41;;;;;;;14.10;9.00;;;;;;;17.04;21.73;101349.13;4476266;32;37520;-77
2022/03/15 10:40:45;;;;;;;16.87;9.88;;;;;;;16.54;21.54;101340.81;4467801;32;34975;-77
2022/03/15 10:43:31;;;;;;;18.35;10.15;;;;;;;16.92;21.88;101337.78;4473549;32;34620;-77
2022/03/15 10:46:22;;;;;;;14.93;9.98;;;;;;;16.73;20.77;101326.81;4479828;32;35199;-77
2022/03/15 10:49:09;;;;;;;17.30;10.45;;;;;;;16.38;21.42;101325.66;4466589;32;34689;-78
2022/03/15 10:51:55;;;;;;;18.08;10.93;;;;;;;16.17;22.65;101317.00;4479764;32;35860;-77
2022/03/15 10:54:43;;;;;;;17.15;10.82;;;;;;;16.71;23.99;101306.16;4463006;32;35478;-77
2022/03/15 10:57:29;;;;;;;18.60;10.40;;;;;;;16.19;22.75;101304.50;4478655;32;34144;-77
2022/03/15 11:00:18;;;;;;;24.95;11.32;;;;;;;16.27;22.65;101299.34;4471088;32;34668;-76
2022/03/15 11:03:16;;;;;;;15.43;9.88;;;;;;;16.47;22.55;101301.69;4479976;32;34948;-77
2022/03/15 11:06:08;;;;;;;14.45;9.70;;;;;;;16.18;22.90;101285.44;4476695;32;34147;-77
2022/03/15 11:08:54;;;;;;;16.45;9.20;;;;;;;16.05;22.92;101270.50;4473028;32;34099;-77
2022/03/15 11:11:42;;;;;;;14.80;9.07;;;;;;;16.60;22.40;101278.69;4479823;32;35642;-76
2022/03/15 11:14:41;;;;;;;15.60;8.13;;;;;;;16.64;23.01;101270.59;4478997;32;35871;-77
2022/03/15 11:17:27;;;;;;;15.10;9.60;;;;;;;16.97;21.55;101259.34;4471161;32;35330;-77
2022/03/15 11:20:15;;;;;;;11.80;7.68;;;;;;;17.36;20.97;101247.53;4481049;32;34316;-77
2022/03/15 11:23:05;;;;;;;15.65;8.40;;;;;;;17.36;21.60;101236.44;4473360;32;35579;-77
2022/03/15 11:26:04;;;;;;;14.20;8.52;;;;;;;17.73;21.13;101226.84;4472643;32;35848;-77
2022/03/15 11:28:52;;;;;;;12.18;7.95;;;;;;;18.01;19.61;101221.06;4479713;32;34356;-80
2022/03/15 11:31:38;;;;;;;12.75;8.13;;;;;;;17.72;20.07;101224.38;4480106;32;34110;-76
2022/03/15 11:34:26;;;;;;;12.57;7.78;;;;;;;18.25;19.67;101209.53;4476476;32;35470;-77
2022/03/15 11:37:12;;;;;;;11.73;7.90;;;;;;;17.89;20.45;101196.72;4473489;32;34492;-77
2022/03/15 11:39:58;;;;;;;13.02;7.28;;;;;;;18.31;20.31;101193.53;4479111;32;35487;-78
2022/03/15 11:42:50;;;;;;;12.88;7.97;;;;;;;17.84;19.52;101191.31;4474855;32;33806;-78
2022/03/15 11:45:45;;;;;;;12.32;7.80;;;;;;;17.88;19.61;101177.66;4473182;32;37081;-77
2022/03/15 11:48:48;;;;;;;13.55;7.25;;;;;;;17.90;20.42;101176.19;4469116;32;34802;-78
2022/03/15 11:51:53;;;;;;;12.85;7.82;;;;;;;17.69;19.31;101169.56;4469670;32;34466;-78
2022/03/15 11:55:06;;;;;;;13.43;6.55;;;;;;;17.25;20.28;101157.53;4472557;32;35617;-77
2022/03/15 11:58:03;;;;;;;13.68;7.37;;;;;;;16.92;21.21;101157.03;4469067;32;34187;-77
2022/03/15 12:00:50;;;;;;;13.18;7.25;;;;;;;17.29;20.73;101125.25;4473659;32;35305;-77
2022/03/15 12:03:47;;;;;;;12.60;6.85;;;;;;;17.37;20.73;101124.47;4480060;32;33320;-78
2022/03/15 12:06:34;;;;;;;13.73;6.60;;;;;;;17.21;20.63;101118.53;4459303;32;33687;-77
2022/03/15 12:09:22;;;;;;;11.57;7.00;;;;;;;16.92;20.69;101126.56;4470045;32;34227;-78
2022/03/15 12:12:10;;;;;;;11.07;6.68;;;;;;;16.99;21.31;101110.31;4475342;32;35075;-78
2022/03/15 12:14:57;;;;;;;10.88;6.65;;;;;;;17.19;20.64;101109.75;4479311;32;34699;-78
2022/03/15 12:17:43;;;;;;;9.55;6.75;;;;;;;17.48;20.36;101106.44;4476452;32;32920;-78
2022/03/15 12:20:29;;;;;;;12.63;6.97;;;;;;;17.68;20.52;101099.47;4481584;32;35553;-76
2022/03/15 12:23:22;;;;;;;10.07;6.75;;;;;;;17.81;19.75;101092.16;4476237;32;34880;-77
2022/03/15 12:26:19;;;;;;;11.35;6.95;;;;;;;17.04;21.27;101077.75;4475004;32;34456;-76
2022/03/15 12:29:13;;;;;;;15.20;6.93;;;;;;;16.73;20.98;101088.00;4476425;32;35628;-76
2022/03/15 12:32:29;;;;;;;14.07;6.55;;;;;;;17.15;21.23;101089.38;4476376;32;34572;-76
2022/03/15 12:35:15;;;;;;;11.20;6.43;;;;;;;16.40;21.23;101096.59;4468058;32;34892;-77
2022/03/15 12:38:10;;;;;;;9.48;6.10;;;;;;;17.25;21.03;101083.53;4482489;32;35450;-77
2022/03/15 12:40:57;;;;;;;10.50;6.25;;;;;;;17.18;20.70;101076.84;4480166;32;34212;-77
2022/03/15 12:43:52;;;;;;;10.05;6.75;;;;;;;17.19;21.18;101078.47;4481518;32;34871;-76
2022/03/15 12:46:40;;;;;;;10.52;6.62;;;;;;;17.14;21.52;101068.34;4463614;32;35925;-77
2022/03/15 12:49:26;;;;;;;11.55;6.20;;;;;;;16.85;21.71;101064.16;4473103;32;34479;-76
2022/03/15 12:52:14;;;;;;;12.32;7.07;;;;;;;16.97;21.77;101060.78;4484194;32;35084;-77